sensor_id;sensor_type;location;lat;lon;timestamp;pressure;altitude;pressure_sealevel;temperature;humidity
6132;BME280;3097;42.692;23.278;2022-09-13T00:00:37;94853.50;;;16.39;79.12
6132;BME280;3097;42.692;23.278;2022-09-13T00:03:03;94850.94;;;16.44;78.52
6132;BME280;3097;42.692;23.278;2022-09-13T00:05:29;94845.75;;;16.44;78.26
6132;BME280;3097;42.692;23.278;2022-09-13T00:07:56;94851.72;;;16.50;78.70
6132;BME280;3097;42.692;23.278;2022-09-13T00:10:22;94835.09;;;16.46;78.43
6132;BME280;3097;42.692;23.278;2022-09-13T00:12:48;94827.28;;;16.51;78.22
6132;BME280;3097;42.692;23.278;2022-09-13T00:15:14;94840.03;;;16.57;78.46
6132;BME280;3097;42.692;23.278;2022-09-13T00:17:40;94838.19;;;16.58;78.25
6132;BME280;3097;42.692;23.278;2022-09-13T00:20:06;94831.19;;;16.53;78.06
6132;BME280;3097;42.692;23.278;2022-09-13T00:22:33;94830.13;;;16.54;78.54
6132;BME280;3097;42.692;23.278;2022-09-13T00:24:58;94828.84;;;16.52;78.60
6132;BME280;3097;42.692;23.278;2022-09-13T00:27:24;94822.31;;;16.49;78.65
6132;BME280;3097;42.692;23.278;2022-09-13T00:29:49;94823.88;;;16.50;79.07
6132;BME280;3097;42.692;23.278;2022-09-13T00:32:15;94825.97;;;16.48;79.36
6132;BME280;3097;42.692;23.278;2022-09-13T00:34:41;94818.16;;;16.48;79.44
6132;BME280;3097;42.692;23.278;2022-09-13T00:37:06;94821.81;;;16.52;79.14
6132;BME280;3097;42.692;23.278;2022-09-13T00:39:33;94817.91;;;16.60;78.94
6132;BME280;3097;42.692;23.278;2022-09-13T00:41:59;94780.94;;;16.43;79.15
6132;BME280;3097;42.692;23.278;2022-09-13T00:47:44;94815.34;;;16.65;78.90
6132;BME280;3097;42.692;23.278;2022-09-13T00:53:04;94817.41;;;16.73;79.01
6132;BME280;3097;42.692;23.278;2022-09-13T00:55:37;94814.28;;;16.81;78.40
6132;BME280;3097;42.692;23.278;2022-09-13T00:58:12;94807.25;;;16.87;78.21
6132;BME280;3097;42.692;23.278;2022-09-13T01:00:41;94810.91;;;16.86;78.08
6132;BME280;3097;42.692;23.278;2022-09-13T01:03:09;94810.91;;;16.91;78.16
6132;BME280;3097;42.692;23.278;2022-09-13T01:05:41;94811.16;;;16.94;77.78
6132;BME280;3097;42.692;23.278;2022-09-13T01:08:08;94804.13;;;16.90;77.40
6132;BME280;3097;42.692;23.278;2022-09-13T01:10:43;94807.00;;;16.93;77.52
6132;BME280;3097;42.692;23.278;2022-09-13T01:13:17;94807.75;;;16.99;77.55
6132;BME280;3097;42.692;23.278;2022-09-13T01:15:43;94793.19;;;16.93;77.50
6132;BME280;3097;42.692;23.278;2022-09-13T01:18:10;94817.66;;;17.07;77.49
6132;BME280;3097;42.692;23.278;2022-09-13T01:34:50;94803.63;;;16.98;77.77
6132;BME280;3097;42.692;23.278;2022-09-13T01:37:34;94803.59;;;17.03;77.50
6132;BME280;3097;42.692;23.278;2022-09-13T01:43:20;94793.69;;;17.10;77.17
6132;BME280;3097;42.692;23.278;2022-09-13T01:45:52;94797.84;;;17.11;77.03
6132;BME280;3097;42.692;23.278;2022-09-13T01:48:31;94798.38;;;17.08;77.51
6132;BME280;3097;42.692;23.278;2022-09-13T01:51:01;94795.25;;;17.11;77.57
6132;BME280;3097;42.692;23.278;2022-09-13T01:56:24;94790.56;;;17.08;77.30
6132;BME280;3097;42.692;23.278;2022-09-13T01:58:59;94788.50;;;17.00;77.69
6132;BME280;3097;42.692;23.278;2022-09-13T02:01:41;94790.59;;;16.98;77.43
6132;BME280;3097;42.692;23.278;2022-09-13T02:04:14;94788.25;;;16.91;77.65
6132;BME280;3097;42.692;23.278;2022-09-13T02:06:50;94792.94;;;16.94;77.81
6132;BME280;3097;42.692;23.278;2022-09-13T02:09:21;94786.44;;;16.97;78.24
6132;BME280;3097;42.692;23.278;2022-09-13T02:11:54;94753.63;;;16.71;77.75
6132;BME280;3097;42.692;23.278;2022-09-13T02:14:24;94792.94;;;16.94;77.85
6132;BME280;3097;42.692;23.278;2022-09-13T02:17:01;94787.72;;;16.94;78.07
6132;BME280;3097;42.692;23.278;2022-09-13T02:19:37;94795.00;;;16.92;77.99
6132;BME280;3097;42.692;23.278;2022-09-13T02:22:05;94792.16;;;16.89;77.87
6132;BME280;3097;42.692;23.278;2022-09-13T02:24:38;94782.81;;;16.83;77.97
6132;BME280;3097;42.692;23.278;2022-09-13T02:27:11;94781.22;;;16.82;77.93
6132;BME280;3097;42.692;23.278;2022-09-13T02:29:41;94792.69;;;16.76;78.31
6132;BME280;3097;42.692;23.278;2022-09-13T02:32:13;94768.72;;;16.58;78.62
6132;BME280;3097;42.692;23.278;2022-09-13T02:35:02;94790.34;;;16.69;78.92
6132;BME280;3097;42.692;23.278;2022-09-13T02:37:32;94795.81;;;16.62;79.00
6132;BME280;3097;42.692;23.278;2022-09-13T02:40:09;94790.03;;;16.55;79.28
6132;BME280;3097;42.692;23.278;2022-09-13T02:42:42;94789.00;;;16.56;79.10
6132;BME280;3097;42.692;23.278;2022-09-13T02:45:11;94800.47;;;16.55;79.25
6132;BME280;3097;42.692;23.278;2022-09-13T02:58:45;94787.16;;;16.26;79.98
6132;BME280;3097;42.692;23.278;2022-09-13T03:01:13;94759.84;;;16.14;79.50
6132;BME280;3097;42.692;23.278;2022-09-13T03:03:39;94772.84;;;16.14;79.67
6132;BME280;3097;42.692;23.278;2022-09-13T03:06:05;94791.34;;;16.27;79.79
6132;BME280;3097;42.692;23.278;2022-09-13T03:08:30;94764.78;;;16.10;79.76
6132;BME280;3097;42.692;23.278;2022-09-13T03:16:42;94785.34;;;16.22;79.81
6132;BME280;3097;42.692;23.278;2022-09-13T03:28:00;94784.28;;;16.08;79.93
6132;BME280;3097;42.692;23.278;2022-09-13T03:30:27;94782.19;;;16.05;79.95
6132;BME280;3097;42.692;23.278;2022-09-13T03:33:56;94786.84;;;16.03;80.25
6132;BME280;3097;42.692;23.278;2022-09-13T03:35:57;94784.78;;;16.00;80.16
6132;BME280;3097;42.692;23.278;2022-09-13T03:38:38;94789.47;;;15.98;80.45
6132;BME280;3097;42.692;23.278;2022-09-13T03:41:11;94791.03;;;15.99;79.37
6132;BME280;3097;42.692;23.278;2022-09-13T03:43:43;94792.84;;;16.03;80.01
6132;BME280;3097;42.692;23.278;2022-09-13T03:46:15;94790.50;;;16.02;80.02
6132;BME280;3097;42.692;23.278;2022-09-13T03:48:42;94787.88;;;15.97;80.10
6132;BME280;3097;42.692;23.278;2022-09-13T03:51:09;94791.03;;;15.99;80.32
6132;BME280;3097;42.692;23.278;2022-09-13T03:53:39;94794.41;;;15.99;79.94
6132;BME280;3097;42.692;23.278;2022-09-13T03:56:15;94784.75;;;15.95;80.36
6132;BME280;3097;42.692;23.278;2022-09-13T03:58:41;94798.28;;;15.97;80.25
6132;BME280;3097;42.692;23.278;2022-09-13T04:01:07;94780.88;;;15.92;80.00
6132;BME280;3097;42.692;23.278;2022-09-13T04:03:37;94796.75;;;16.01;79.85
6132;BME280;3097;42.692;23.278;2022-09-13T04:06:04;94797.25;;;15.98;79.87
6132;BME280;3097;42.692;23.278;2022-09-13T04:08:30;94795.16;;;15.95;79.97
6132;BME280;3097;42.692;23.278;2022-09-13T04:10:56;94795.94;;;15.90;79.83
6132;BME280;3097;42.692;23.278;2022-09-13T04:13:22;94794.63;;;15.87;80.01
6132;BME280;3097;42.692;23.278;2022-09-13T04:15:48;94793.03;;;15.81;80.75
6132;BME280;3097;42.692;23.278;2022-09-13T04:18:14;94780.28;;;15.75;80.46
6132;BME280;3097;42.692;23.278;2022-09-13T04:20:40;94789.66;;;15.81;80.96
6132;BME280;3097;42.692;23.278;2022-09-13T04:23:05;94799.81;;;15.77;80.70
6132;BME280;3097;42.692;23.278;2022-09-13T04:25:31;94799.03;;;15.77;80.84
6132;BME280;3097;42.692;23.278;2022-09-13T04:27:57;94796.13;;;15.68;80.91
6132;BME280;3097;42.692;23.278;2022-09-13T04:30:26;94805.75;;;15.73;80.94
6132;BME280;3097;42.692;23.278;2022-09-13T04:32:52;94806.78;;;15.67;80.39
6132;BME280;3097;42.692;23.278;2022-09-13T04:35:22;94807.00;;;15.65;79.94
6132;BME280;3097;42.692;23.278;2022-09-13T04:37:47;94808.31;;;15.63;80.30
6132;BME280;3097;42.692;23.278;2022-09-13T04:40:13;94813.28;;;15.69;80.10
6132;BME280;3097;42.692;23.278;2022-09-13T04:42:39;94813.03;;;15.71;80.47
6132;BME280;3097;42.692;23.278;2022-09-13T04:45:05;94821.88;;;15.75;80.45
6132;BME280;3097;42.692;23.278;2022-09-13T04:47:31;94796.84;;;15.59;80.22
6132;BME280;3097;42.692;23.278;2022-09-13T04:49:57;94821.66;;;15.86;79.89
6132;BME280;3097;42.692;23.278;2022-09-13T04:52:22;94798.47;;;15.75;79.43
6132;BME280;3097;42.692;23.278;2022-09-13T04:54:50;94824.81;;;16.04;79.05
6132;BME280;3097;42.692;23.278;2022-09-13T04:57:16;94819.41;;;16.20;78.74
6132;BME280;3097;42.692;23.278;2022-09-13T04:59:42;94823.94;;;16.91;76.16
6132;BME280;3097;42.692;23.278;2022-09-13T05:02:07;94822.53;;;18.13;71.00
6132;BME280;3097;42.692;23.278;2022-09-13T05:04:33;94809.03;;;19.42;65.55
6132;BME280;3097;42.692;23.278;2022-09-13T05:06:59;94820.44;;;21.06;61.72
6132;BME280;3097;42.692;23.278;2022-09-13T05:09:24;94821.78;;;22.32;56.19
6132;BME280;3097;42.692;23.278;2022-09-13T05:11:50;94802.38;;;23.62;53.56
6132;BME280;3097;42.692;23.278;2022-09-13T05:14:15;94742.25;;;24.46;49.87
6132;BME280;3097;42.692;23.278;2022-09-13T05:16:41;94799.38;;;25.78;46.76
6132;BME280;3097;42.692;23.278;2022-09-13T05:19:09;94779.25;;;26.57;45.04
6132;BME280;3097;42.692;23.278;2022-09-13T05:21:35;94808.13;;;27.61;43.33
6132;BME280;3097;42.692;23.278;2022-09-13T05:24:01;94807.44;;;28.49;41.54
6132;BME280;3097;42.692;23.278;2022-09-13T05:26:28;94811.34;;;29.23;39.23
6132;BME280;3097;42.692;23.278;2022-09-13T05:28:58;94750.53;;;29.49;37.57
6132;BME280;3097;42.692;23.278;2022-09-13T05:31:29;94810.97;;;29.84;37.92
6132;BME280;3097;42.692;23.278;2022-09-13T05:34:05;94813.81;;;29.75;37.04
6132;BME280;3097;42.692;23.278;2022-09-13T05:36:31;94803.63;;;29.18;37.50
6132;BME280;3097;42.692;23.278;2022-09-13T05:38:57;94809.09;;;29.37;38.38
6132;BME280;3097;42.692;23.278;2022-09-13T05:41:23;94813.66;;;29.09;38.81
6132;BME280;3097;42.692;23.278;2022-09-13T05:43:48;94809.97;;;28.45;39.35
6132;BME280;3097;42.692;23.278;2022-09-13T05:46:16;94821.44;;;27.40;40.33
6132;BME280;3097;42.692;23.278;2022-09-13T05:48:42;94817.47;;;25.51;43.53
6132;BME280;3097;42.692;23.278;2022-09-13T05:53:40;94823.50;;;23.17;50.18
6132;BME280;3097;42.692;23.278;2022-09-13T05:56:11;94823.59;;;23.34;51.24
6132;BME280;3097;42.692;23.278;2022-09-13T05:58:38;94822.03;;;24.12;50.45
6132;BME280;3097;42.692;23.278;2022-09-13T06:01:05;94820.22;;;25.08;47.74
6132;BME280;3097;42.692;23.278;2022-09-13T06:03:31;94825.81;;;26.29;45.03
6132;BME280;3097;42.692;23.278;2022-09-13T06:05:57;94798.59;;;27.35;42.04
6132;BME280;3097;42.692;23.278;2022-09-13T06:08:27;94809.25;;;28.33;39.72
6132;BME280;3097;42.692;23.278;2022-09-13T06:11:01;94818.97;;;29.09;38.75
6132;BME280;3097;42.692;23.278;2022-09-13T06:13:27;94819.19;;;29.47;37.64
6132;BME280;3097;42.692;23.278;2022-09-13T06:15:55;94822.63;;;29.79;36.99
6132;BME280;3097;42.692;23.278;2022-09-13T06:18:21;94820.19;;;30.21;36.75
6132;BME280;3097;42.692;23.278;2022-09-13T06:20:48;94826.44;;;30.83;35.79
6132;BME280;3097;42.692;23.278;2022-09-13T06:23:14;94829.94;;;31.26;35.08
6132;BME280;3097;42.692;23.278;2022-09-13T06:25:40;94829.19;;;30.87;33.99
6132;BME280;3097;42.692;23.278;2022-09-13T06:28:06;94830.81;;;30.37;34.93
6132;BME280;3097;42.692;23.278;2022-09-13T06:30:32;94829.22;;;29.85;35.81
6132;BME280;3097;42.692;23.278;2022-09-13T06:32:58;94831.28;;;30.43;35.60
6132;BME280;3097;42.692;23.278;2022-09-13T06:35:24;94826.22;;;30.92;34.25
6132;BME280;3097;42.692;23.278;2022-09-13T06:37:50;94830.00;;;31.52;34.45
6132;BME280;3097;42.692;23.278;2022-09-13T06:40:15;94833.53;;;31.56;32.54
6132;BME280;3097;42.692;23.278;2022-09-13T06:42:41;94829.19;;;31.94;33.60
6132;BME280;3097;42.692;23.278;2022-09-13T06:45:08;94831.31;;;32.07;33.48
6132;BME280;3097;42.692;23.278;2022-09-13T06:47:34;94841.91;;;31.77;32.42
6132;BME280;3097;42.692;23.278;2022-09-13T06:50:00;94848.53;;;31.45;32.93
6132;BME280;3097;42.692;23.278;2022-09-13T06:52:26;94849.19;;;31.38;33.73
6132;BME280;3097;42.692;23.278;2022-09-13T06:54:52;94855.72;;;30.64;33.94
6132;BME280;3097;42.692;23.278;2022-09-13T06:57:18;94852.69;;;30.30;34.92
6132;BME280;3097;42.692;23.278;2022-09-13T06:59:43;94858.84;;;29.99;36.22
6132;BME280;3097;42.692;23.278;2022-09-13T07:02:10;94840.38;;;29.16;35.57
6132;BME280;3097;42.692;23.278;2022-09-13T07:04:35;94856.78;;;29.06;37.89
6132;BME280;3097;42.692;23.278;2022-09-13T07:07:01;94859.56;;;29.25;38.49
6132;BME280;3097;42.692;23.278;2022-09-13T07:09:29;94858.69;;;29.49;37.18
6132;BME280;3097;42.692;23.278;2022-09-13T07:11:54;94875.66;;;28.88;36.59
6132;BME280;3097;42.692;23.278;2022-09-13T07:14:29;94864.25;;;27.99;40.21
6132;BME280;3097;42.692;23.278;2022-09-13T07:16:54;94870.66;;;27.08;40.31
6132;BME280;3097;42.692;23.278;2022-09-13T07:19:25;94869.47;;;26.05;41.17
6132;BME280;3097;42.692;23.278;2022-09-13T07:21:52;94871.97;;;25.55;43.72
6132;BME280;3097;42.692;23.278;2022-09-13T07:24:18;94875.81;;;25.58;43.77
6132;BME280;3097;42.692;23.278;2022-09-13T07:26:45;94868.06;;;25.70;42.64
6132;BME280;3097;42.692;23.278;2022-09-13T07:29:14;94870.22;;;25.76;42.93
6132;BME280;3097;42.692;23.278;2022-09-13T07:31:42;94876.91;;;26.03;45.37
6132;BME280;3097;42.692;23.278;2022-09-13T07:34:16;94870.56;;;26.54;44.36
6132;BME280;3097;42.692;23.278;2022-09-13T07:36:43;94874.53;;;26.69;41.45
6132;BME280;3097;42.692;23.278;2022-09-13T07:39:11;94859.69;;;26.77;41.95
6132;BME280;3097;42.692;23.278;2022-09-13T07:41:37;94876.53;;;26.51;40.83
6132;BME280;3097;42.692;23.278;2022-09-13T07:44:03;94874.84;;;25.79;41.50
6132;BME280;3097;42.692;23.278;2022-09-13T07:46:31;94867.69;;;25.33;44.15
6132;BME280;3097;42.692;23.278;2022-09-13T07:49:00;94877.59;;;25.28;43.72
6132;BME280;3097;42.692;23.278;2022-09-13T07:51:31;94888.34;;;25.05;44.31
6132;BME280;3097;42.692;23.278;2022-09-13T07:54:00;94881.97;;;25.06;44.50
6132;BME280;3097;42.692;23.278;2022-09-13T07:56:33;94884.00;;;25.10;44.54
6132;BME280;3097;42.692;23.278;2022-09-13T07:59:01;94888.34;;;25.23;44.54
6132;BME280;3097;42.692;23.278;2022-09-13T08:01:35;94886.31;;;25.20;45.98
6132;BME280;3097;42.692;23.278;2022-09-13T08:04:04;94877.09;;;25.52;43.16
6132;BME280;3097;42.692;23.278;2022-09-13T08:06:32;94858.22;;;24.89;42.16
6132;BME280;3097;42.692;23.278;2022-09-13T08:08:58;94885.38;;;24.90;45.59
6132;BME280;3097;42.692;23.278;2022-09-13T08:11:30;94885.66;;;25.40;44.75
6132;BME280;3097;42.692;23.278;2022-09-13T08:13:57;94880.75;;;25.85;44.25
6132;BME280;3097;42.692;23.278;2022-09-13T08:16:24;94881.97;;;26.17;44.57
6132;BME280;3097;42.692;23.278;2022-09-13T08:18:52;94876.53;;;26.51;40.98
6132;BME280;3097;42.692;23.278;2022-09-13T08:21:18;94885.59;;;26.12;39.29
6132;BME280;3097;42.692;23.278;2022-09-13T08:23:47;94853.44;;;25.17;40.55
6132;BME280;3097;42.692;23.278;2022-09-13T08:26:13;94841.81;;;24.92;42.43
6132;BME280;3097;42.692;23.278;2022-09-13T08:28:40;94866.47;;;24.79;41.95
6132;BME280;3097;42.692;23.278;2022-09-13T08:33:31;94846.13;;;25.14;43.95
6132;BME280;3097;42.692;23.278;2022-09-13T08:35:57;94871.38;;;25.41;42.61
6132;BME280;3097;42.692;23.278;2022-09-13T08:38:23;94870.41;;;25.54;40.56
6132;BME280;3097;42.692;23.278;2022-09-13T08:40:52;94872.03;;;25.29;40.78
6132;BME280;3097;42.692;23.278;2022-09-13T08:46:03;94723.53;;;23.48;43.19
6132;BME280;3097;42.692;23.278;2022-09-13T08:48:35;94875.53;;;24.21;41.92
6132;BME280;3097;42.692;23.278;2022-09-13T08:51:06;94864.53;;;23.80;41.81
6132;BME280;3097;42.692;23.278;2022-09-13T08:53:43;94861.25;;;23.43;44.05
6132;BME280;3097;42.692;23.278;2022-09-13T09:03:55;94856.78;;;23.75;43.76
6132;BME280;3097;42.692;23.278;2022-09-13T09:06:24;94869.88;;;23.58;42.50
6132;BME280;3097;42.692;23.278;2022-09-13T09:09:02;94867.84;;;23.32;44.03
6132;BME280;3097;42.692;23.278;2022-09-13T09:14:33;94875.31;;;22.58;45.35
6132;BME280;3097;42.692;23.278;2022-09-13T09:17:03;94865.78;;;22.62;46.12
6132;BME280;3097;42.692;23.278;2022-09-13T09:19:35;94869.31;;;22.44;44.28
6132;BME280;3097;42.692;23.278;2022-09-13T09:22:19;94871.88;;;22.35;44.53
6132;BME280;3097;42.692;23.278;2022-09-13T09:24:55;94869.06;;;22.32;45.67
6132;BME280;3097;42.692;23.278;2022-09-13T09:27:21;94866.81;;;22.39;44.62
6132;BME280;3097;42.692;23.278;2022-09-13T09:29:50;94859.84;;;22.21;45.02
6132;BME280;3097;42.692;23.278;2022-09-13T09:37:39;94857.47;;;22.33;45.36
6132;BME280;3097;42.692;23.278;2022-09-13T09:40:08;94834.97;;;22.05;44.19
6132;BME280;3097;42.692;23.278;2022-09-13T09:42:45;94854.97;;;22.14;44.69
6132;BME280;3097;42.692;23.278;2022-09-13T09:47:49;94842.91;;;22.13;46.14
6132;BME280;3097;42.692;23.278;2022-09-13T09:50:18;94848.00;;;22.10;47.24
6132;BME280;3097;42.692;23.278;2022-09-13T09:52:52;94843.69;;;22.14;45.79
6132;BME280;3097;42.692;23.278;2022-09-13T09:58:07;94834.81;;;22.37;47.51
6132;BME280;3097;42.692;23.278;2022-09-13T10:00:35;94832.91;;;22.51;46.18
6132;BME280;3097;42.692;23.278;2022-09-13T10:03:07;94823.56;;;22.59;48.25
6132;BME280;3097;42.692;23.278;2022-09-13T10:05:41;94821.88;;;22.76;45.26
6132;BME280;3097;42.692;23.278;2022-09-13T10:08:23;94812.16;;;22.86;45.74
6132;BME280;3097;42.692;23.278;2022-09-13T10:10:54;94810.50;;;22.90;47.95
6132;BME280;3097;42.692;23.278;2022-09-13T10:13:22;94790.31;;;22.76;44.55
6132;BME280;3097;42.692;23.278;2022-09-13T10:15:53;94804.25;;;22.63;47.04
6132;BME280;3097;42.692;23.278;2022-09-13T10:18:20;94812.13;;;22.41;45.83
6132;BME280;3097;42.692;23.278;2022-09-13T10:23:28;94810.47;;;22.09;47.93
6132;BME280;3097;42.692;23.278;2022-09-13T10:25:57;94802.03;;;22.34;47.08
6132;BME280;3097;42.692;23.278;2022-09-13T10:28:25;94811.34;;;22.40;48.48
6132;BME280;3097;42.692;23.278;2022-09-13T10:30:57;94805.50;;;22.44;47.15
6132;BME280;3097;42.692;23.278;2022-09-13T10:33:28;94789.19;;;22.33;45.60
6132;BME280;3097;42.692;23.278;2022-09-13T10:35:58;94808.41;;;22.42;45.10
6132;BME280;3097;42.692;23.278;2022-09-13T10:38:33;94808.88;;;22.22;46.28
6132;BME280;3097;42.692;23.278;2022-09-13T10:41:03;94799.94;;;22.23;47.95
6132;BME280;3097;42.692;23.278;2022-09-13T10:43:31;94801.84;;;22.31;47.82
6132;BME280;3097;42.692;23.278;2022-09-13T10:45:59;94791.81;;;22.33;45.96
6132;BME280;3097;42.692;23.278;2022-09-13T10:48:28;94789.41;;;22.23;45.70
6132;BME280;3097;42.692;23.278;2022-09-13T10:51:06;94784.75;;;22.20;44.28
6132;BME280;3097;42.692;23.278;2022-09-13T10:53:38;94713.75;;;21.75;44.57
6132;BME280;3097;42.692;23.278;2022-09-13T10:56:05;94779.53;;;22.06;45.79
6132;BME280;3097;42.692;23.278;2022-09-13T10:58:42;94783.19;;;22.19;46.33
6132;BME280;3097;42.692;23.278;2022-09-13T11:01:29;94773.41;;;22.33;44.89
6132;BME280;3097;42.692;23.278;2022-09-13T11:04:25;94780.00;;;22.44;47.26
6132;BME280;3097;42.692;23.278;2022-09-13T11:10:02;94771.28;;;22.57;46.16
6132;BME280;3097;42.692;23.278;2022-09-13T11:15:56;94772.38;;;22.78;42.16
6132;BME280;3097;42.692;23.278;2022-09-13T11:26:38;94752.81;;;22.71;42.20
6132;BME280;3097;42.692;23.278;2022-09-13T11:32:01;94685.94;;;22.24;42.54
6132;BME280;3097;42.692;23.278;2022-09-13T11:34:44;94753.72;;;22.66;42.43
6132;BME280;3097;42.692;23.278;2022-09-13T11:47:56;94755.47;;;22.93;43.10
6132;BME280;3097;42.692;23.278;2022-09-13T11:50:51;94760.78;;;22.80;41.34
6132;BME280;3097;42.692;23.278;2022-09-13T11:56:35;94755.81;;;22.56;41.71
6132;BME280;3097;42.692;23.278;2022-09-13T12:01:53;94748.28;;;22.40;44.97
6132;BME280;3097;42.692;23.278;2022-09-13T12:17:40;94753.81;;;22.75;41.74
6132;BME280;3097;42.692;23.278;2022-09-13T12:22:48;94748.84;;;22.73;40.99
6132;BME280;3097;42.692;23.278;2022-09-13T12:25:21;94741.53;;;22.70;42.42
6132;BME280;3097;42.692;23.278;2022-09-13T12:27:56;94720.91;;;22.55;42.72
6132;BME280;3097;42.692;23.278;2022-09-13T12:30:32;94750.97;;;22.71;43.35
6132;BME280;3097;42.692;23.278;2022-09-13T12:33:04;94722.34;;;22.61;42.22
6132;BME280;3097;42.692;23.278;2022-09-13T12:35:34;94747.00;;;22.74;42.36
6132;BME280;3097;42.692;23.278;2022-09-13T12:40:57;94744.19;;;22.93;42.19
6132;BME280;3097;42.692;23.278;2022-09-13T12:48:55;94745.31;;;22.78;41.92
6132;BME280;3097;42.692;23.278;2022-09-13T12:54:35;94752.19;;;22.43;42.30
6132;BME280;3097;42.692;23.278;2022-09-13T13:04:51;94724.00;;;22.35;44.56
6132;BME280;3097;42.692;23.278;2022-09-13T13:07:20;94744.28;;;22.65;43.44
6132;BME280;3097;42.692;23.278;2022-09-13T13:09:49;94753.94;;;22.70;44.16
6132;BME280;3097;42.692;23.278;2022-09-13T13:12:37;94746.03;;;22.70;43.19
6132;BME280;3097;42.692;23.278;2022-09-13T13:17:54;94750.88;;;22.54;42.69
6132;BME280;3097;42.692;23.278;2022-09-13T13:23:24;94751.66;;;22.32;43.03
6132;BME280;3097;42.692;23.278;2022-09-13T13:26:00;94746.94;;;22.43;44.00
6132;BME280;3097;42.692;23.278;2022-09-13T13:33:47;94679.88;;;21.65;45.83
6132;BME280;3097;42.692;23.278;2022-09-13T13:36:21;94755.84;;;22.20;45.88
6132;BME280;3097;42.692;23.278;2022-09-13T13:38:48;94758.19;;;22.21;44.99
6132;BME280;3097;42.692;23.278;2022-09-13T13:46:45;94762.00;;;22.15;44.06
6132;BME280;3097;42.692;23.278;2022-09-13T13:57:36;94656.19;;;21.02;44.36
6132;BME280;3097;42.692;23.278;2022-09-13T14:02:48;94745.47;;;21.38;44.18
6132;BME280;3097;42.692;23.278;2022-09-13T14:21:39;94778.59;;;21.61;45.70
6132;BME280;3097;42.692;23.278;2022-09-13T14:24:20;94780.34;;;21.52;46.06
6132;BME280;3097;42.692;23.278;2022-09-13T14:26:50;94708.91;;;21.00;46.71
6132;BME280;3097;42.692;23.278;2022-09-13T14:29:21;94782.19;;;21.38;45.87
6132;BME280;3097;42.692;23.278;2022-09-13T14:31:51;94778.97;;;21.41;45.29
6132;BME280;3097;42.692;23.278;2022-09-13T14:34:22;94774.41;;;21.46;45.86
6132;BME280;3097;42.692;23.278;2022-09-13T14:37:00;94772.84;;;21.45;45.78
6132;BME280;3097;42.692;23.278;2022-09-13T14:39:26;94786.28;;;21.57;43.59
6132;BME280;3097;42.692;23.278;2022-09-13T14:42:12;94775.88;;;21.52;43.23
6132;BME280;3097;42.692;23.278;2022-09-13T14:44:45;94757.41;;;21.30;43.67
6132;BME280;3097;42.692;23.278;2022-09-13T14:49:47;94778.00;;;21.37;44.11
6132;BME280;3097;42.692;23.278;2022-09-13T14:52:24;94774.97;;;21.43;43.32
6132;BME280;3097;42.692;23.278;2022-09-13T14:54:54;94771.00;;;21.46;43.66
6132;BME280;3097;42.692;23.278;2022-09-13T14:57:49;94772.00;;;21.50;44.63
6132;BME280;3097;42.692;23.278;2022-09-13T15:00:20;94747.13;;;21.34;44.85
6132;BME280;3097;42.692;23.278;2022-09-13T15:03:01;94780.81;;;21.68;44.54
6132;BME280;3097;42.692;23.278;2022-09-13T15:05:31;94786.72;;;21.73;43.64
6132;BME280;3097;42.692;23.278;2022-09-13T15:07:58;94718.56;;;21.18;44.72
6132;BME280;3097;42.692;23.278;2022-09-13T15:10:27;94792.34;;;21.80;44.83
6132;BME280;3097;42.692;23.278;2022-09-13T15:18:00;94782.88;;;21.71;44.10
6132;BME280;3097;42.692;23.278;2022-09-13T15:26:07;94785.38;;;21.76;44.40
6132;BME280;3097;42.692;23.278;2022-09-13T15:28:58;94779.63;;;21.74;45.70
6132;BME280;3097;42.692;23.278;2022-09-13T15:31:32;94787.72;;;21.77;44.92
6132;BME280;3097;42.692;23.278;2022-09-13T15:36:42;94778.19;;;21.54;45.74
6132;BME280;3097;42.692;23.278;2022-09-13T15:41:35;94764.88;;;21.37;45.82
6132;BME280;3097;42.692;23.278;2022-09-13T15:44:03;94783.63;;;21.44;45.55
6132;BME280;3097;42.692;23.278;2022-09-13T15:46:30;94787.41;;;21.38;45.87
6132;BME280;3097;42.692;23.278;2022-09-13T15:48:58;94794.63;;;21.32;44.42
6132;BME280;3097;42.692;23.278;2022-09-13T15:51:25;94793.94;;;21.27;44.78
6132;BME280;3097;42.692;23.278;2022-09-13T15:53:53;94791.59;;;21.25;45.11
6132;BME280;3097;42.692;23.278;2022-09-13T15:56:28;94793.53;;;21.19;44.98
6132;BME280;3097;42.692;23.278;2022-09-13T15:58:57;94795.03;;;21.07;46.35
6132;BME280;3097;42.692;23.278;2022-09-13T16:01:23;94800.25;;;21.07;46.44
6132;BME280;3097;42.692;23.278;2022-09-13T16:03:48;94804.66;;;21.11;46.66
6132;BME280;3097;42.692;23.278;2022-09-13T16:06:14;94804.59;;;21.16;46.55
6132;BME280;3097;42.692;23.278;2022-09-13T16:08:39;94803.00;;;21.15;46.77
6132;BME280;3097;42.692;23.278;2022-09-13T16:11:06;94810.63;;;21.17;46.94
6132;BME280;3097;42.692;23.278;2022-09-13T16:13:32;94810.38;;;21.13;46.97
6132;BME280;3097;42.692;23.278;2022-09-13T16:15:57;94809.13;;;21.11;47.82
6132;BME280;3097;42.692;23.278;2022-09-13T16:18:23;94808.22;;;21.02;48.17
6132;BME280;3097;42.692;23.278;2022-09-13T16:20:49;94804.41;;;20.94;48.88
6132;BME280;3097;42.692;23.278;2022-09-13T16:23:14;94778.56;;;20.74;49.21
6132;BME280;3097;42.692;23.278;2022-09-13T16:25:40;94782.72;;;20.75;49.53
6132;BME280;3097;42.692;23.278;2022-09-13T16:28:06;94810.53;;;20.90;49.62
6132;BME280;3097;42.692;23.278;2022-09-13T16:30:32;94808.34;;;20.78;49.75
6132;BME280;3097;42.692;23.278;2022-09-13T16:32:58;94809.13;;;20.78;49.97
6132;BME280;3097;42.692;23.278;2022-09-13T16:35:30;94811.41;;;20.66;50.23
6132;BME280;3097;42.692;23.278;2022-09-13T16:37:56;94810.28;;;20.54;50.86
6132;BME280;3097;42.692;23.278;2022-09-13T16:40:22;94810.91;;;20.45;51.32
6132;BME280;3097;42.692;23.278;2022-09-13T16:42:48;94812.84;;;20.40;51.20
6132;BME280;3097;42.692;23.278;2022-09-13T16:45:14;94791.94;;;20.16;51.27
6132;BME280;3097;42.692;23.278;2022-09-13T16:47:40;94812.03;;;20.21;51.32
6132;BME280;3097;42.692;23.278;2022-09-13T16:50:06;94825.69;;;20.18;51.59
6132;BME280;3097;42.692;23.278;2022-09-13T16:52:32;94814.13;;;20.00;52.16
6132;BME280;3097;42.692;23.278;2022-09-13T16:54:58;94821.69;;;20.01;52.31
6132;BME280;3097;42.692;23.278;2022-09-13T16:57:24;94834.25;;;20.04;52.74